Time;durP1;ratioP1;P1;durP2;ratioP2;P2;SDS_P1;SDS_P2;PMS_P1;PMS_P2;Temp;Humidity;BMP_temperature;BMP_pressure;BME280_temperature;BME280_humidity;BME280_pressure;Samples;Min_cycle;Max_cycle;Signal;HPM_P1;HPM_P2
2021/03/13 00:01:11;;;;;;;2.53;2.23;;;8.40;46.20;;;;;;5056493;28;20803;-66
2021/03/13 00:03:36;;;;;;;1.80;1.70;;;8.50;46.30;;;;;;5070235;28;20179;-65
2021/03/13 00:06:03;;;;;;;1.53;1.43;;;8.30;45.80;;;;;;5062787;28;20422;-66
2021/03/13 00:08:28;;;;;;;1.80;1.70;;;8.30;46.80;;;;;;5050444;28;20200;-65
2021/03/13 00:10:54;;;;;;;1.70;1.60;;;8.30;46.60;;;;;;5050190;28;20986;-65
2021/03/13 00:13:20;;;;;;;2.27;1.80;;;8.10;47.80;;;;;;5049341;28;20172;-66
2021/03/13 00:15:46;;;;;;;2.10;1.80;;;8.20;48.70;;;;;;5061873;28;20781;-68
2021/03/13 00:18:12;;;;;;;1.90;1.80;;;8.00;48.90;;;;;;5070057;28;20174;-66
2021/03/13 00:20:40;;;;;;;1.90;1.80;;;8.10;49.30;;;;;;5070396;28;20514;-65
2021/03/13 00:23:06;;;;;;;2.83;1.43;;;8.20;49.10;;;;;;5070511;28;20417;-65
2021/03/13 00:25:35;;;;;;;1.53;1.50;;;8.20;48.40;;;;;;5070212;28;20454;-67
2021/03/13 00:28:00;;;;;;;2.10;2.00;;;8.20;48.90;;;;;;5070187;28;20453;-66
2021/03/13 00:30:33;;;;;;;2.00;1.90;;;8.50;48.70;;;;;;5070534;28;20416;-67
2021/03/13 00:32:58;;;;;;;1.63;1.53;;;8.60;48.00;;;;;;5070267;28;20168;-66
2021/03/13 00:35:25;;;;;;;1.90;1.80;;;8.40;48.40;;;;;;5070819;28;20412;-65
2021/03/13 00:37:51;;;;;;;2.57;2.37;;;8.30;49.80;;;;;;5070366;28;20183;-66
2021/03/13 00:40:19;;;;;;;1.60;1.53;;;8.30;49.20;;;;;;5070162;28;20424;-66
2021/03/13 00:42:45;;;;;;;3.10;1.90;;;8.30;49.20;;;;;;5070458;28;20491;-66
2021/03/13 00:45:13;;;;;;;1.53;1.43;;;8.10;50.50;;;;;;5070209;28;20449;-66
2021/03/13 00:47:40;;;;;;;2.20;1.73;;;8.30;48.60;;;;;;5069786;28;20514;-66
2021/03/13 00:50:07;;;;;;;1.50;1.40;;;8.10;49.30;;;;;;5070404;28;20440;-67
2021/03/13 00:52:33;;;;;;;1.50;1.40;;;8.10;48.10;;;;;;5070140;28;21022;-67
2021/03/13 00:54:58;;;;;;;2.23;1.60;;;8.10;48.00;;;;;;5069994;28;20418;-66
2021/03/13 00:57:24;;;;;;;1.47;1.37;;;8.00;48.90;;;;;;5070116;28;20559;-65
2021/03/13 00:59:50;;;;;;;1.67;1.57;;;8.00;47.80;;;;;;5070047;28;20175;-66
2021/03/13 01:02:16;;;;;;;1.30;1.20;;;8.00;48.40;;;;;;5069851;28;20198;-66
2021/03/13 01:04:41;;;;;;;2.70;1.80;;;8.10;49.10;;;;;;5070137;28;20190;-66
2021/03/13 01:07:07;;;;;;;1.17;1.13;;;8.10;49.20;;;;;;5069860;28;20457;-66
2021/03/13 01:09:33;;;;;;;1.80;1.70;;;8.00;49.80;;;;;;5070044;28;20182;-67
2021/03/13 01:11:59;;;;;;;1.50;1.40;;;8.00;50.70;;;;;;5061676;28;20210;-67
2021/03/13 01:14:25;;;;;;;1.87;1.77;;;8.10;51.40;;;;;;5069063;28;20421;-65
2021/03/13 01:16:51;;;;;;;1.60;1.50;;;7.80;52.30;;;;;;5073757;28;20222;-68
2021/03/13 01:19:17;;;;;;;1.40;1.30;;;7.80;52.80;;;;;;5071931;28;20440;-68
2021/03/13 01:21:42;;;;;;;1.40;1.40;;;7.60;52.80;;;;;;5053580;28;20390;-66
2021/03/13 01:24:08;;;;;;;1.30;1.30;;;7.70;51.60;;;;;;5053594;28;20519;-65
2021/03/13 01:26:33;;;;;;;1.50;1.50;;;7.70;51.10;;;;;;5052090;28;20206;-66
2021/03/13 01:28:59;;;;;;;1.37;1.33;;;7.70;50.50;;;;;;5053079;28;20675;-66
2021/03/13 01:31:25;;;;;;;1.60;1.50;;;7.80;50.50;;;;;;5070182;28;20205;-66
2021/03/13 01:33:50;;;;;;;1.80;1.40;;;7.80;50.60;;;;;;5072993;28;20544;-67
2021/03/13 01:36:16;;;;;;;1.50;1.50;;;8.00;49.10;;;;;;5073283;28;20198;-66
2021/03/13 01:38:41;;;;;;;1.40;1.40;;;7.90;49.10;;;;;;5072992;28;20675;-66
2021/03/13 01:41:07;;;;;;;1.40;1.40;;;7.90;50.20;;;;;;5072959;28;20199;-66
2021/03/13 01:43:33;;;;;;;1.47;1.47;;;8.10;49.90;;;;;;5073191;28;20250;-66
2021/03/13 01:45:59;;;;;;;1.93;1.60;;;8.00;50.00;;;;;;5073228;28;20175;-65
2021/03/13 01:48:31;;;;;;;1.77;1.60;;;7.80;50.00;;;;;;5072638;28;20240;-66
2021/03/13 01:50:58;;;;;;;1.30;1.30;;;7.80;50.50;;;;;;5073113;28;20194;-65
2021/03/13 01:53:23;;;;;;;1.63;1.57;;;7.30;51.20;;;;;;5073251;28;20500;-65
2021/03/13 01:55:49;;;;;;;1.63;1.60;;;7.30;51.70;;;;;;5073012;28;20433;-65
2021/03/13 01:58:15;;;;;;;1.90;1.80;;;7.60;52.60;;;;;;5073034;28;20195;-66
2021/03/13 02:00:40;;;;;;;1.30;1.30;;;7.80;51.20;;;;;;5073095;28;20171;-66
2021/03/13 02:03:06;;;;;;;1.83;1.67;;;7.80;50.70;;;;;;5072633;28;20236;-66
2021/03/13 02:05:42;;;;;;;1.87;1.77;;;7.80;52.30;;;;;;5072852;28;20224;-66
2021/03/13 02:08:37;;;;;;;1.70;1.60;;;7.90;51.90;;;;;;5072612;28;20198;-65
2021/03/13 02:11:40;;;;;;;1.87;1.60;;;7.90;51.10;;;;;;5072492;28;20433;-67
2021/03/13 02:14:20;;;;;;;2.23;1.90;;;7.90;51.50;;;;;;5071486;28;20416;-66
2021/03/13 02:17:02;;;;;;;1.93;1.67;;;7.80;50.50;;;;;;5072382;28;20479;-66
2021/03/13 02:20:05;;;;;;;1.70;1.60;;;7.60;51.90;;;;;;5072507;28;20777;-67
2021/03/13 02:22:38;;;;;;;1.73;1.70;;;7.50;52.60;;;;;;5072303;28;20432;-67
2021/03/13 02:25:09;;;;;;;1.77;1.67;;;7.50;53.30;;;;;;5072253;28;20767;-66
2021/03/13 02:27:47;;;;;;;1.70;1.60;;;7.80;53.30;;;;;;5071174;28;20859;-65
2021/03/13 02:30:20;;;;;;;1.73;1.63;;;7.80;51.70;;;;;;5072291;28;20409;-66
2021/03/13 02:33:06;;;;;;;1.70;1.60;;;7.80;51.40;;;;;;5071961;28;20511;-66
2021/03/13 02:35:37;;;;;;;1.73;1.63;;;7.90;51.50;;;;;;5067967;28;20981;-66
2021/03/13 02:38:07;;;;;;;1.70;1.60;;;7.70;51.90;;;;;;5071958;28;20810;-66
2021/03/13 02:40:36;;;;;;;1.90;1.80;;;7.70;51.80;;;;;;5071877;28;20417;-68
2021/03/13 02:43:06;;;;;;;3.00;1.70;;;7.70;53.50;;;;;;5072144;28;20830;-67
2021/03/13 02:45:34;;;;;;;2.30;2.00;;;7.90;52.50;;;;;;5072057;28;20804;-66
2021/03/13 02:48:03;;;;;;;1.67;1.57;;;7.80;51.70;;;;;;5071465;28;20449;-66
2021/03/13 02:50:30;;;;;;;3.40;1.80;;;7.90;51.70;;;;;;5070647;28;20772;-66
2021/03/13 02:52:57;;;;;;;1.90;1.80;;;7.90;50.40;;;;;;5071875;28;20453;-65
2021/03/13 02:55:25;;;;;;;2.13;2.03;;;7.90;50.60;;;;;;5071625;28;20413;-66
2021/03/13 02:57:54;;;;;;;2.27;1.70;;;7.80;51.50;;;;;;5071853;28;20410;-66
2021/03/13 03:00:24;;;;;;;2.10;2.00;;;7.80;51.10;;;;;;5071811;28;20427;-67
2021/03/13 03:02:53;;;;;;;2.03;1.83;;;7.90;50.60;;;;;;5056686;28;20449;-67
2021/03/13 03:05:21;;;;;;;4.07;1.87;;;7.90;50.60;;;;;;5050401;28;20411;-66
2021/03/13 03:07:48;;;;;;;3.20;2.00;;;7.90;49.30;;;;;;5049623;28;20462;-64
2021/03/13 03:10:16;;;;;;;2.60;2.20;;;7.80;49.60;;;;;;5058646;28;20413;-66
2021/03/13 03:12:43;;;;;;;2.00;1.90;;;8.20;49.60;;;;;;5070173;28;20461;-66
2021/03/13 03:15:10;;;;;;;2.20;2.00;;;8.20;48.20;;;;;;5070147;28;20445;-66
2021/03/13 03:17:38;;;;;;;3.00;2.87;;;8.40;48.70;;;;;;5066479;28;20432;-65
2021/03/13 03:20:07;;;;;;;4.60;2.97;;;8.30;47.20;;;;;;5050964;28;20452;-66
2021/03/13 03:22:35;;;;;;;2.20;2.10;;;8.40;47.20;;;;;;5068848;28;20476;-65
2021/03/13 03:25:01;;;;;;;6.93;2.20;;;8.30;48.40;;;;;;5071035;28;20417;-65
2021/03/13 03:27:26;;;;;;;1.93;1.83;;;8.30;46.90;;;;;;5070966;28;20806;-65
2021/03/13 03:29:52;;;;;;;1.90;1.80;;;8.40;47.80;;;;;;5069881;28;20791;-65
2021/03/13 03:32:17;;;;;;;3.23;2.00;;;8.40;47.00;;;;;;5070815;28;20232;-67
2021/03/13 03:34:43;;;;;;;1.77;1.67;;;8.20;47.20;;;;;;5069887;28;20214;-67
2021/03/13 03:37:08;;;;;;;4.60;3.00;;;8.00;48.30;;;;;;5070739;28;20719;-65
2021/03/13 03:39:34;;;;;;;2.67;1.90;;;8.00;48.80;;;;;;5070567;28;20216;-65
2021/03/13 03:42:03;;;;;;;1.77;1.70;;;8.10;48.40;;;;;;5070888;28;20198;-65
2021/03/13 03:44:38;;;;;;;6.60;2.23;;;8.10;48.20;;;;;;5070637;28;20175;-65
2021/03/13 03:47:04;;;;;;;2.10;2.00;;;8.20;49.30;;;;;;5070713;28;20413;-66
2021/03/13 03:49:32;;;;;;;2.37;1.87;;;8.30;48.70;;;;;;5070977;28;20409;-65
2021/03/13 03:51:59;;;;;;;1.80;1.70;;;8.20;47.80;;;;;;5070635;28;20431;-66
2021/03/13 03:54:25;;;;;;;1.97;1.83;;;8.10;48.60;;;;;;5070530;28;20417;-65
2021/03/13 03:56:53;;;;;;;2.47;2.10;;;8.20;49.30;;;;;;5070729;28;20489;-65
2021/03/13 03:59:20;;;;;;;2.43;2.23;;;8.10;48.50;;;;;;5070648;28;20698;-66
2021/03/13 04:01:52;;;;;;;2.43;1.97;;;8.20;49.00;;;;;;5070477;28;20479;-65
2021/03/13 04:04:22;;;;;;;2.40;2.00;;;8.20;48.40;;;;;;5070589;28;20426;-65
2021/03/13 04:06:52;;;;;;;2.77;2.20;;;8.40;47.40;;;;;;5070637;28;20459;-65
2021/03/13 04:09:22;;;;;;;2.00;1.77;;;8.40;47.70;;;;;;5070135;28;20425;-65
2021/03/13 04:11:49;;;;;;;1.90;1.80;;;8.40;47.50;;;;;;5070510;28;20429;-66
2021/03/13 04:14:15;;;;;;;2.03;1.80;;;8.50;48.70;;;;;;5070685;28;20466;-65
2021/03/13 04:16:40;;;;;;;1.80;1.70;;;8.50;47.50;;;;;;5070375;28;20412;-65
2021/03/13 04:19:07;;;;;;;5.03;2.10;;;8.40;48.50;;;;;;5070478;28;20824;-66
2021/03/13 04:21:32;;;;;;;1.80;1.70;;;8.50;47.60;;;;;;5070398;28;20199;-67
2021/03/13 04:23:58;;;;;;;2.17;1.90;;;8.40;47.70;;;;;;5070191;28;20748;-67
2021/03/13 04:26:25;;;;;;;1.53;1.43;;;8.70;47.50;;;;;;5070564;28;20171;-66
2021/03/13 04:28:51;;;;;;;2.00;1.57;;;8.80;46.50;;;;;;5070093;28;20468;-66
2021/03/13 04:31:22;;;;;;;2.50;2.30;;;8.90;46.60;;;;;;5070116;28;20433;-67
2021/03/13 04:33:49;;;;;;;2.80;1.83;;;8.90;47.60;;;;;;5070307;28;20421;-66
2021/03/13 04:36:16;;;;;;;2.30;1.83;;;8.80;46.90;;;;;;5070316;28;20776;-66
2021/03/13 04:38:43;;;;;;;2.97;1.90;;;9.00;46.80;;;;;;5069707;28;20799;-65
2021/03/13 04:41:09;;;;;;;2.00;1.90;;;8.80;45.40;;;;;;5070154;28;20459;-65
2021/03/13 04:43:36;;;;;;;1.73;1.63;;;8.80;45.90;;;;;;5070308;28;20951;-66
2021/03/13 04:46:02;;;;;;;2.70;1.83;;;8.90;46.60;;;;;;5070130;28;20892;-65
2021/03/13 04:48:31;;;;;;;5.27;1.83;;;8.90;45.80;;;;;;5069866;28;20457;-65
2021/03/13 04:51:01;;;;;;;3.20;1.80;;;9.00;45.70;;;;;;5072701;28;20482;-66
2021/03/13 04:53:28;;;;;;;1.70;1.60;;;9.00;45.50;;;;;;5074082;28;20417;-65
2021/03/13 04:55:53;;;;;;;1.40;1.40;;;9.00;46.20;;;;;;5072916;28;20463;-65
2021/03/13 04:58:19;;;;;;;2.90;1.57;;;8.80;45.10;;;;;;5073987;28;20417;-66
2021/03/13 05:00:46;;;;;;;3.07;1.80;;;8.70;46.40;;;;;;5073771;28;20180;-68
2021/03/13 05:03:11;;;;;;;3.27;2.20;;;8.80;45.70;;;;;;5073839;28;20583;-66
2021/03/13 05:05:37;;;;;;;1.70;1.60;;;8.80;45.30;;;;;;5073774;28;20406;-67
2021/03/13 05:08:02;;;;;;;5.90;2.30;;;8.70;46.30;;;;;;5073533;28;20230;-66
2021/03/13 05:10:28;;;;;;;2.30;1.60;;;8.80;45.50;;;;;;5073964;28;20200;-66
2021/03/13 05:12:54;;;;;;;2.17;2.07;;;8.80;44.50;;;;;;5073899;28;20202;-66
2021/03/13 05:15:20;;;;;;;3.07;1.50;;;8.90;44.40;;;;;;5073672;28;20783;-66
2021/03/13 05:17:46;;;;;;;1.90;1.80;;;8.90;44.10;;;;;;5073612;28;20435;-67
2021/03/13 05:20:12;;;;;;;1.90;1.80;;;9.10;44.10;;;;;;5073521;28;20274;-67
2021/03/13 05:22:38;;;;;;;1.93;1.83;;;9.10;43.90;;;;;;5073292;28;20460;-66
2021/03/13 05:25:05;;;;;;;1.77;1.40;;;9.00;44.30;;;;;;5073708;28;20526;-66
2021/03/13 05:27:31;;;;;;;1.90;1.50;;;9.10;43.90;;;;;;5073120;28;20210;-66
2021/03/13 05:29:57;;;;;;;1.67;1.57;;;9.00;43.50;;;;;;5073219;28;20409;-66
2021/03/13 05:32:23;;;;;;;3.03;1.97;;;9.00;43.80;;;;;;5073442;28;20274;-66
2021/03/13 05:34:49;;;;;;;1.87;1.77;;;9.00;43.30;;;;;;5073298;28;20413;-67
2021/03/13 05:37:15;;;;;;;2.50;1.70;;;9.10;42.80;;;;;;5072899;28;20478;-66
2021/03/13 05:39:40;;;;;;;1.53;1.43;;;9.30;42.40;;;;;;5073285;28;20833;-66
2021/03/13 05:42:06;;;;;;;1.80;1.70;;;9.20;42.40;;;;;;5073155;28;20616;-66
2021/03/13 05:44:33;;;;;;;1.50;1.40;;;9.30;42.00;;;;;;5072963;28;20194;-65
2021/03/13 05:46:59;;;;;;;2.30;1.60;;;9.20;41.90;;;;;;5073097;28;20500;-65
2021/03/13 05:49:26;;;;;;;2.13;1.60;;;9.30;42.00;;;;;;5072959;28;20488;-67
2021/03/13 05:51:54;;;;;;;1.83;1.60;;;9.20;41.50;;;;;;5072622;28;20563;-66
2021/03/13 05:54:19;;;;;;;1.60;1.50;;;9.30;42.00;;;;;;5073052;28;20409;-66
2021/03/13 05:56:45;;;;;;;4.50;2.10;;;9.20;42.00;;;;;;5073021;28;20394;-66
2021/03/13 05:59:12;;;;;;;1.63;1.53;;;9.10;41.80;;;;;;5072621;28;20821;-67
2021/03/13 06:01:37;;;;;;;3.90;1.70;;;9.20;42.30;;;;;;5071459;28;20440;-67
2021/03/13 06:04:03;;;;;;;3.50;1.50;;;9.20;41.90;;;;;;5072697;28;20409;-68
2021/03/13 06:06:33;;;;;;;1.90;1.80;;;9.30;41.60;;;;;;5071341;28;20210;-67
2021/03/13 06:09:00;;;;;;;1.80;1.70;;;9.10;41.80;;;;;;5060229;28;20555;-66
2021/03/13 06:11:25;;;;;;;2.07;1.80;;;9.20;40.70;;;;;;5062991;28;20440;-65
2021/03/13 06:13:51;;;;;;;1.83;1.70;;;9.30;41.70;;;;;;5072395;28;20927;-67
2021/03/13 06:16:16;;;;;;;1.90;1.53;;;9.40;40.70;;;;;;5057467;28;20179;-68
2021/03/13 06:18:48;;;;;;;1.47;1.37;;;9.40;40.60;;;;;;5052395;28;20220;-67
2021/03/13 06:21:40;;;;;;;1.70;1.60;;;9.30;40.20;;;;;;5070444;28;20207;-67
2021/03/13 06:24:24;;;;;;;2.43;1.40;;;9.40;40.20;;;;;;5059576;28;20433;-66
2021/03/13 06:26:52;;;;;;;1.93;1.83;;;9.50;40.20;;;;;;5072346;28;20497;-66
2021/03/13 06:29:18;;;;;;;1.87;1.73;;;9.50;40.80;;;;;;5067495;28;20461;-66
2021/03/13 06:31:44;;;;;;;2.27;2.07;;;9.30;39.90;;;;;;5063976;28;20437;-66
2021/03/13 06:34:26;;;;;;;1.80;1.70;;;9.50;39.70;;;;;;5056054;28;20189;-67
2021/03/13 06:37:21;;;;;;;3.07;1.77;;;9.60;39.60;;;;;;5072116;28;20191;-69
2021/03/13 06:39:47;;;;;;;1.57;1.47;;;9.60;38.30;;;;;;5071927;28;20472;-67
2021/03/13 06:42:23;;;;;;;2.43;1.80;;;9.60;38.40;;;;;;5070574;28;20448;-68
2021/03/13 06:45:07;;;;;;;2.57;1.33;;;9.50;38.90;;;;;;5071745;28;20974;-66
2021/03/13 06:47:40;;;;;;;3.30;1.70;;;9.50;38.70;;;;;;5070449;28;20458;-67
2021/03/13 06:50:20;;;;;;;4.00;2.10;;;9.60;38.60;;;;;;5071590;28;20761;-66
2021/03/13 06:52:50;;;;;;;3.47;1.90;;;9.50;38.00;;;;;;5071773;28;20873;-67
2021/03/13 06:55:22;;;;;;;2.57;1.73;;;9.60;38.30;;;;;;5071833;28;20916;-66
2021/03/13 06:57:49;;;;;;;1.60;1.40;;;9.60;37.60;;;;;;5068368;28;21097;-66
2021/03/13 07:00:31;;;;;;;3.70;2.00;;;9.50;38.80;;;;;;5056344;28;20914;-66
2021/03/13 07:03:07;;;;;;;4.30;1.87;;;9.60;38.10;;;;;;5064591;28;21200;-66
2021/03/13 07:05:33;;;;;;;2.60;2.27;;;9.70;37.60;;;;;;5051373;28;20889;-67
2021/03/13 07:07:59;;;;;;;1.50;1.40;;;9.70;37.30;;;;;;5051454;28;20461;-66
2021/03/13 07:10:27;;;;;;;4.43;1.83;;;9.60;37.50;;;;;;5051644;28;20437;-66
2021/03/13 07:12:52;;;;;;;2.20;1.77;;;9.70;37.60;;;;;;5049488;28;20521;-67
2021/03/13 07:15:26;;;;;;;1.50;1.40;;;9.80;37.00;;;;;;5051576;28;20881;-66
2021/03/13 07:17:52;;;;;;;6.20;2.00;;;9.80;36.80;;;;;;5051221;28;20206;-67
2021/03/13 07:20:22;;;;;;;4.17;1.90;;;9.90;37.20;;;;;;5051349;28;20402;-67
2021/03/13 07:22:51;;;;;;;1.60;1.50;;;9.90;37.60;;;;;;5050377;28;20203;-67
2021/03/13 07:25:20;;;;;;;1.50;1.33;;;10.00;35.40;;;;;;5052779;28;20782;-66
2021/03/13 07:27:46;;;;;;;3.20;1.70;;;10.10;35.30;;;;;;5071165;28;20454;-65
2021/03/13 07:30:15;;;;;;;2.13;1.57;;;10.00;34.30;;;;;;5071357;28;20406;-65
2021/03/13 07:32:48;;;;;;;1.60;1.50;;;9.90;34.80;;;;;;5063389;28;20476;-66
2021/03/13 07:35:15;;;;;;;1.70;1.60;;;9.90;34.50;;;;;;5070067;28;20414;-66
2021/03/13 07:37:41;;;;;;;1.73;1.63;;;10.00;35.30;;;;;;5069320;28;20414;-66
2021/03/13 07:40:16;;;;;;;1.40;1.30;;;9.90;36.00;;;;;;5070890;28;20421;-65
2021/03/13 07:42:44;;;;;;;1.57;1.40;;;9.90;34.50;;;;;;5069462;28;20973;-65
2021/03/13 07:45:14;;;;;;;2.00;1.83;;;10.00;33.70;;;;;;5070951;28;20455;-66
2021/03/13 07:47:41;;;;;;;3.60;1.50;;;10.10;33.80;;;;;;5070726;28;20557;-65
2021/03/13 07:50:09;;;;;;;2.43;1.80;;;10.00;33.10;;;;;;5070410;28;20409;-66
2021/03/13 07:52:36;;;;;;;1.73;1.53;;;10.10;34.50;;;;;;5070564;28;20469;-66
2021/03/13 07:55:03;;;;;;;1.53;1.27;;;10.20;32.80;;;;;;5070817;28;20496;-65
2021/03/13 07:57:29;;;;;;;1.67;1.50;;;10.30;32.80;;;;;;5070334;28;20406;-66
2021/03/13 07:59:54;;;;;;;2.40;1.67;;;10.40;31.80;;;;;;5070716;28;20409;-66
2021/03/13 08:02:32;;;;;;;1.87;1.40;;;10.50;32.50;;;;;;5070725;28;21015;-65
2021/03/13 08:05:02;;;;;;;2.40;1.40;;;10.50;31.80;;;;;;5067756;28;20191;-65
2021/03/13 08:07:29;;;;;;;1.60;1.50;;;10.40;31.80;;;;;;5051270;28;20511;-65
2021/03/13 08:09:56;;;;;;;1.67;1.53;;;10.30;32.40;;;;;;5048925;28;20453;-65
2021/03/13 08:12:39;;;;;;;2.77;1.47;;;10.40;30.90;;;;;;5056754;28;20840;-65
2021/03/13 08:15:31;;;;;;;2.23;2.10;;;10.40;31.60;;;;;;5050667;28;20490;-69
2021/03/13 08:17:57;;;;;;;4.40;2.07;;;10.80;33.10;;;;;;5044976;28;20513;-68
2021/03/13 08:20:30;;;;;;;1.90;1.77;;;11.80;37.40;;;;;;5070505;28;20890;-67
2021/03/13 08:23:17;;;;;;;6.07;2.40;;;13.00;37.40;;;;;;5069713;28;20199;-68
2021/03/13 08:25:59;;;;;;;3.80;1.60;;;13.00;31.10;;;;;;5069071;28;20417;-69
2021/03/13 08:28:46;;;;;;;4.73;1.97;;;12.80;28.70;;;;;;5069626;28;20607;-69
2021/03/13 08:31:33;;;;;;;2.67;1.43;;;13.30;27.70;;;;;;5069068;28;20499;-68
2021/03/13 08:33:58;;;;;;;1.67;1.10;;;13.70;33.50;;;;;;5070054;28;20398;-66
2021/03/13 08:36:25;;;;;;;1.30;1.20;;;13.10;25.30;;;;;;5066640;28;20470;-66
2021/03/13 08:38:54;;;;;;;1.53;1.50;;;12.10;26.70;;;;;;5058424;28;20240;-65
2021/03/13 08:41:46;;;;;;;1.17;1.17;;;11.50;27.40;;;;;;5051757;28;20441;-66
2021/03/13 08:44:25;;;;;;;1.67;1.37;;;11.10;28.30;;;;;;5063618;28;20428;-66
2021/03/13 08:46:57;;;;;;;2.03;1.60;;;11.10;28.00;;;;;;5069224;28;20420;-67
2021/03/13 08:49:26;;;;;;;3.70;1.20;;;11.00;28.90;;;;;;5069816;28;20453;-67
2021/03/13 08:52:10;;;;;;;2.33;1.13;;;11.10;28.10;;;;;;5069105;28;20429;-66
2021/03/13 08:54:41;;;;;;;2.43;1.23;;;11.10;27.50;;;;;;5058507;28;20411;-66
2021/03/13 08:57:17;;;;;;;2.10;1.30;;;11.00;27.20;;;;;;5054968;28;20936;-66
2021/03/13 08:59:44;;;;;;;2.90;1.30;;;11.10;27.50;;;;;;5051845;28;20963;-66
2021/03/13 09:02:11;;;;;;;2.10;1.27;;;11.00;28.00;;;;;;5051561;28;20444;-66
2021/03/13 09:04:38;;;;;;;1.40;1.10;;;11.10;27.60;;;;;;5053482;28;20829;-66
2021/03/13 09:07:05;;;;;;;1.80;1.10;;;11.10;27.10;;;;;;5069856;28;20418;-65
2021/03/13 09:09:33;;;;;;;1.20;1.20;;;11.10;27.20;;;;;;5061978;28;20420;-67
2021/03/13 09:12:06;;;;;;;2.33;1.30;;;10.90;27.80;;;;;;5057701;28;20455;-65
2021/03/13 09:14:33;;;;;;;4.70;1.33;;;11.10;27.50;;;;;;5054022;28;20415;-66
2021/03/13 09:17:07;;;;;;;2.03;1.40;;;11.10;27.20;;;;;;5050174;28;20410;-65
2021/03/13 09:19:33;;;;;;;2.70;1.20;;;11.30;27.30;;;;;;5058119;28;20452;-66
2021/03/13 09:21:58;;;;;;;1.27;1.07;;;11.20;26.80;;;;;;5063704;28;20454;-67
2021/03/13 09:24:27;;;;;;;2.20;1.30;;;11.30;26.80;;;;;;5054743;28;20466;-66
2021/03/13 09:26:55;;;;;;;2.13;1.13;;;11.30;26.70;;;;;;5062031;28;20226;-66
2021/03/13 09:29:26;;;;;;;2.50;1.20;;;11.30;26.50;;;;;;5069626;28;21002;-66
2021/03/13 09:32:04;;;;;;;1.07;0.90;;;11.30;27.00;;;;;;5069841;28;20982;-67
2021/03/13 09:34:38;;;;;;;1.20;1.20;;;11.30;27.20;;;;;;5069559;28;20919;-67
2021/03/13 09:37:37;;;;;;;3.33;1.10;;;11.40;26.50;;;;;;5072255;28;20406;-68
2021/03/13 09:40:11;;;;;;;5.33;1.30;;;11.50;27.10;;;;;;5047991;28;20940;-67
2021/03/13 09:42:38;;;;;;;2.67;1.17;;;11.40;26.30;;;;;;5053392;28;20426;-66
2021/03/13 09:45:11;;;;;;;2.30;1.23;;;11.30;26.30;;;;;;5053368;28;20495;-66
2021/03/13 09:47:48;;;;;;;2.90;1.50;;;11.40;27.80;;;;;;5065219;28;20490;-66
2021/03/13 09:50:25;;;;;;;4.23;1.43;;;11.60;26.30;;;;;;5073079;28;20429;-66
2021/03/13 09:52:51;;;;;;;1.13;1.10;;;11.60;26.40;;;;;;5072846;28;20437;-66
2021/03/13 09:55:21;;;;;;;2.73;1.30;;;11.80;26.50;;;;;;5072629;28;20402;-66
2021/03/13 09:57:49;;;;;;;1.87;1.10;;;11.70;26.80;;;;;;5073168;28;20175;-66
2021/03/13 10:00:26;;;;;;;1.70;1.60;;;11.60;26.10;;;;;;5073174;28;20908;-66
2021/03/13 10:02:53;;;;;;;1.83;1.10;;;11.70;27.80;;;;;;5056571;28;20450;-66
2021/03/13 10:05:25;;;;;;;1.90;1.50;;;11.70;26.30;;;;;;5068088;28;20889;-65
2021/03/13 10:07:52;;;;;;;3.00;1.20;;;11.80;27.20;;;;;;5072387;28;20472;-67
2021/03/13 10:10:22;;;;;;;1.47;1.17;;;11.70;25.90;;;;;;5052561;28;20414;-67
2021/03/13 10:12:53;;;;;;;3.80;0.90;;;11.60;26.20;;;;;;5063146;28;20436;-67
2021/03/13 10:15:20;;;;;;;1.40;1.30;;;11.70;27.10;;;;;;5072683;28;20417;-67
2021/03/13 10:17:49;;;;;;;2.50;1.20;;;11.70;27.10;;;;;;5072216;28;20499;-67
2021/03/13 10:20:15;;;;;;;1.33;1.20;;;11.70;26.20;;;;;;5065861;28;20463;-67
2021/03/13 10:22:41;;;;;;;1.33;1.23;;;11.60;26.30;;;;;;5071950;28;20445;-67
2021/03/13 10:25:08;;;;;;;1.83;1.50;;;11.50;26.10;;;;;;5072161;28;20412;-66
2021/03/13 10:27:35;;;;;;;1.40;1.30;;;11.60;26.60;;;;;;5072003;28;20199;-66
2021/03/13 10:30:06;;;;;;;1.63;1.37;;;11.70;26.70;;;;;;5071683;28;20401;-68
2021/03/13 10:32:37;;;;;;;1.10;1.10;;;11.70;26.40;;;;;;5070622;28;20508;-68
2021/03/13 10:35:11;;;;;;;1.40;1.30;;;11.60;26.30;;;;;;5067263;28;20670;-68
2021/03/13 10:37:40;;;;;;;1.30;1.20;;;11.70;27.40;;;;;;5069810;28;20935;-68
2021/03/13 10:40:07;;;;;;;1.50;1.40;;;11.70;27.30;;;;;;5052039;28;20622;-67
2021/03/13 10:42:35;;;;;;;1.20;1.07;;;11.60;26.40;;;;;;5052013;28;20469;-67
2021/03/13 10:45:15;;;;;;;1.40;1.30;;;11.60;27.20;;;;;;5069800;28;20944;-68
2021/03/13 10:47:42;;;;;;;2.03;1.10;;;11.60;26.60;;;;;;5070527;28;20467;-68
2021/03/13 10:50:08;;;;;;;1.00;1.00;;;11.70;26.50;;;;;;5071893;28;20489;-68
2021/03/13 10:52:33;;;;;;;3.00;1.23;;;11.70;26.40;;;;;;5071753;28;20433;-69
2021/03/13 10:54:59;;;;;;;1.50;1.40;;;11.70;26.10;;;;;;5071581;28;20405;-68
2021/03/13 10:57:24;;;;;;;1.70;0.80;;;11.70;26.10;;;;;;5071524;28;20635;-68
2021/03/13 10:59:50;;;;;;;1.13;1.03;;;11.60;26.20;;;;;;5071475;28;20182;-68
2021/03/13 11:02:15;;;;;;;1.20;1.10;;;11.70;26.90;;;;;;5071343;28;20249;-67
2021/03/13 11:04:41;;;;;;;2.60;1.30;;;11.60;26.40;;;;;;5071640;28;20642;-68
2021/03/13 11:07:07;;;;;;;2.47;1.20;;;11.60;26.70;;;;;;5071500;28;20179;-67
2021/03/13 11:09:33;;;;;;;1.13;1.03;;;11.70;26.40;;;;;;5057976;28;20175;-67
2021/03/13 11:11:59;;;;;;;1.53;1.20;;;11.70;26.10;;;;;;5062612;28;20439;-69
2021/03/13 11:14:25;;;;;;;2.10;1.03;;;11.70;25.70;;;;;;5054754;28;20487;-68
2021/03/13 11:16:52;;;;;;;1.03;1.03;;;11.70;26.00;;;;;;5060652;28;20188;-68
2021/03/13 11:19:17;;;;;;;1.30;1.20;;;11.70;25.70;;;;;;5063190;28;20460;-66
2021/03/13 11:21:43;;;;;;;1.20;1.10;;;11.70;26.20;;;;;;5051091;28;20438;-69
2021/03/13 11:24:09;;;;;;;1.20;1.10;;;11.70;25.80;;;;;;5051069;28;20179;-67
2021/03/13 11:26:35;;;;;;;3.40;1.23;;;11.80;25.40;;;;;;5051261;28;20237;-66
2021/03/13 11:29:00;;;;;;;1.00;1.00;;;11.80;25.50;;;;;;5056338;28;20929;-67
2021/03/13 11:31:26;;;;;;;1.80;1.10;;;11.90;25.40;;;;;;5059340;28;20199;-67
2021/03/13 11:33:51;;;;;;;5.70;1.40;;;11.90;25.40;;;;;;5063906;28;20228;-67
2021/03/13 11:36:17;;;;;;;2.57;1.47;;;11.80;25.20;;;;;;5060374;28;20207;-68
2021/03/13 11:38:43;;;;;;;1.70;1.60;;;11.80;25.50;;;;;;5066376;28;20199;-68
2021/03/13 11:41:12;;;;;;;1.10;0.90;;;11.90;25.60;;;;;;5067028;28;20447;-68
2021/03/13 11:43:42;;;;;;;1.10;1.07;;;11.90;25.40;;;;;;5050808;28;20180;-67
2021/03/13 11:46:08;;;;;;;2.10;1.37;;;11.90;25.30;;;;;;5050795;28;20456;-69
2021/03/13 11:48:34;;;;;;;1.20;1.10;;;12.00;25.70;;;;;;5050937;28;20465;-68
2021/03/13 11:51:00;;;;;;;1.20;1.10;;;11.90;26.20;;;;;;5070378;28;20440;-68
2021/03/13 11:53:26;;;;;;;3.77;1.10;;;12.00;25.70;;;;;;5051673;28;20180;-66
2021/03/13 11:55:52;;;;;;;6.53;1.40;;;12.10;25.50;;;;;;5050948;28;20525;-68
2021/03/13 11:58:17;;;;;;;1.70;1.40;;;12.00;25.40;;;;;;5053760;28;20426;-67
2021/03/13 12:00:43;;;;;;;1.00;1.00;;;12.00;25.50;;;;;;5050080;28;20206;-68
2021/03/13 12:03:08;;;;;;;1.50;1.20;;;12.00;26.70;;;;;;5049524;28;20207;-68
2021/03/13 12:05:34;;;;;;;1.53;1.43;;;12.00;26.00;;;;;;5050734;28;20203;-67
2021/03/13 12:08:00;;;;;;;3.43;1.47;;;12.10;25.20;;;;;;5050197;28;20229;-67
2021/03/13 12:10:26;;;;;;;1.20;1.20;;;12.00;26.20;;;;;;5050273;28;20179;-67
2021/03/13 12:12:52;;;;;;;1.37;1.37;;;11.90;26.40;;;;;;5050389;28;20930;-67
2021/03/13 12:15:18;;;;;;;1.30;1.20;;;12.00;26.70;;;;;;5053195;28;20175;-67
2021/03/13 12:17:44;;;;;;;1.73;1.63;;;12.00;26.70;;;;;;5060427;28;20187;-67
2021/03/13 12:20:10;;;;;;;2.30;1.60;;;12.00;28.00;;;;;;5051480;28;20419;-67
2021/03/13 12:22:36;;;;;;;1.07;1.07;;;12.00;28.00;;;;;;5054187;28;20438;-67
2021/03/13 12:25:05;;;;;;;1.43;1.20;;;12.00;28.50;;;;;;5049951;28;20509;-67
2021/03/13 12:27:31;;;;;;;1.30;1.20;;;11.90;28.30;;;;;;5049999;28;20454;-67
2021/03/13 12:29:56;;;;;;;1.30;1.20;;;11.90;28.40;;;;;;5051082;28;20784;-67
2021/03/13 12:32:22;;;;;;;3.27;1.30;;;12.00;29.20;;;;;;5070122;28;20429;-67
2021/03/13 12:34:48;;;;;;;2.93;1.20;;;11.80;30.00;;;;;;5055422;28;20266;-68
2021/03/13 12:37:14;;;;;;;5.53;1.47;;;11.80;30.90;;;;;;5050309;28;20471;-68
2021/03/13 12:39:39;;;;;;;1.10;1.00;;;11.80;29.80;;;;;;5050879;28;20180;-68
2021/03/13 12:42:05;;;;;;;1.10;1.10;;;11.70;30.50;;;;;;5046655;28;20477;-68
2021/03/13 12:44:31;;;;;;;1.03;1.03;;;11.50;30.50;;;;;;5049411;28;20188;-67
2021/03/13 12:46:57;;;;;;;2.57;1.50;;;11.60;30.80;;;;;;5051397;28;20424;-67
2021/03/13 12:49:23;;;;;;;1.50;1.40;;;11.60;31.10;;;;;;5058434;28;20207;-65
2021/03/13 12:51:48;;;;;;;1.23;1.13;;;11.80;31.10;;;;;;5067103;28;21125;-67
2021/03/13 12:54:14;;;;;;;1.30;1.13;;;11.80;30.60;;;;;;5061770;28;20290;-67
2021/03/13 12:56:40;;;;;;;1.87;1.70;;;11.80;31.50;;;;;;5062208;28;20187;-67
2021/03/13 12:59:05;;;;;;;8.80;5.07;;;11.70;32.50;;;;;;5051586;28;20651;-67
2021/03/13 13:01:31;;;;;;;1.13;1.13;;;11.50;32.80;;;;;;5048166;28;20607;-67